Time;durP1;ratioP1;P1;durP2;ratioP2;P2;SDS_P1;SDS_P2;PMS_P1;PMS_P2;Temp;Humidity;BMP_temperature;BMP_pressure;BME280_temperature;BME280_humidity;BME280_pressure;Samples;Min_cycle;Max_cycle;Signal;HPM_P1;HPM_P2
2023/03/02 00:01:26;;;;;;;213.63;120.50;;;154.50;2252.80;;;;;;5092506;28;20032;-58
2023/03/02 00:03:52;;;;;;;182.32;111.60;;;154.50;2252.80;;;;;;5092290;28;20048;-60
2023/03/02 00:06:18;;;;;;;196.70;116.63;;;154.30;2252.80;;;;;;5092941;28;20073;-60
2023/03/02 00:08:45;;;;;;;203.73;115.72;;;154.40;2252.80;;;;;;5092155;28;20020;-58
2023/03/02 00:11:14;;;;;;;187.43;113.63;;;154.40;2252.80;;;;;;5092898;28;20034;-59
2023/03/02 00:13:40;;;;;;;212.88;121.90;;;154.30;2252.80;;;;;;5092460;28;20031;-61
2023/03/02 00:16:06;;;;;;;166.85;103.05;;;154.30;2252.80;;;;;;5092272;28;20408;-59
2023/03/02 00:18:32;;;;;;;157.77;99.15;;;154.00;2252.80;;;;;;5092398;28;20032;-57
2023/03/02 00:20:58;;;;;;;164.75;102.88;;;153.70;2252.80;;;;;;5092318;28;20024;-61
2023/03/02 00:23:23;;;;;;;169.75;100.68;;;153.60;2252.80;;;;;;5092015;28;20032;-59
2023/03/02 00:25:49;;;;;;;196.77;115.75;;;153.60;2252.80;;;;;;5091511;28;20028;-58
2023/03/02 00:28:15;;;;;;;171.45;104.97;;;153.70;2252.80;;;;;;5092373;28;20024;-58
2023/03/02 00:30:41;;;;;;;183.38;108.72;;;153.90;2252.80;;;;;;5091668;28;20040;-61
2023/03/02 00:33:06;;;;;;;202.23;115.45;;;154.00;2252.80;;;;;;5092055;28;20024;-59
2023/03/02 00:35:37;;;;;;;172.63;100.13;;;154.10;2252.80;;;;;;5092000;28;20113;-60
2023/03/02 00:38:03;;;;;;;165.05;96.38;;;154.30;2252.80;;;;;;5092173;28;20020;-58
2023/03/02 00:40:28;;;;;;;174.10;100.65;;;154.30;2252.80;;;;;;5091595;28;20039;-60
2023/03/02 00:42:54;;;;;;;170.93;102.32;;;154.40;2252.80;;;;;;5082576;28;20108;-59
2023/03/02 00:45:20;;;;;;;200.40;121.85;;;154.50;2252.80;;;;;;5085712;28;20024;-59
2023/03/02 00:47:45;;;;;;;165.40;99.82;;;154.40;2252.80;;;;;;5091582;28;20028;-58
2023/03/02 00:50:11;;;;;;;181.68;104.05;;;179.30;2252.80;;;;;;5091443;28;20024;-58
2023/03/02 00:52:36;;;;;;;195.32;115.78;;;154.50;2252.80;;;;;;5091431;28;20089;-60
2023/03/02 00:55:02;;;;;;;190.05;115.05;;;154.50;2252.80;;;;;;5091525;28;20028;-57
2023/03/02 00:57:28;;;;;;;252.05;147.50;;;154.50;2252.80;;;;;;5091313;28;20020;-59
2023/03/02 00:59:54;;;;;;;243.38;143.02;;;154.50;2252.80;;;;;;5091783;28;20032;-61
2023/03/02 01:02:20;;;;;;;278.17;157.30;;;154.50;2252.80;;;;;;5091330;28;20445;-59
2023/03/02 01:04:47;;;;;;;249.98;146.77;;;154.50;2252.80;;;;;;5091708;28;20032;-59
2023/03/02 01:07:15;;;;;;;252.68;152.68;;;154.40;2252.80;;;;;;5091504;28;20099;-60
2023/03/02 01:09:42;;;;;;;251.43;151.73;;;154.30;2252.80;;;;;;5091160;28;20028;-59
2023/03/02 01:12:10;;;;;;;266.33;151.68;;;154.20;2252.80;;;;;;5091370;28;20378;-59
2023/03/02 01:14:41;;;;;;;252.65;148.57;;;154.00;2252.80;;;;;;5091355;28;20029;-59
2023/03/02 01:17:08;;;;;;;261.13;157.15;;;153.90;2252.80;;;;;;5091270;28;20027;-59
2023/03/02 01:19:34;;;;;;;255.95;153.40;;;154.00;2252.80;;;;;;5089417;28;20019;-59
2023/03/02 01:22:00;;;;;;;276.23;170.93;;;154.00;2252.80;;;;;;5080807;28;20035;-59
2023/03/02 01:24:26;;;;;;;273.83;152.50;;;154.20;2252.80;;;;;;5087668;28;20032;-59
2023/03/02 01:26:52;;;;;;;277.65;159.48;;;154.20;2252.80;;;;;;5091222;28;20081;-60
2023/03/02 01:29:18;;;;;;;220.13;134.40;;;154.30;2252.80;;;;;;5090541;28;20032;-60
2023/03/02 01:31:43;;;;;;;230.63;136.38;;;154.20;2252.80;;;;;;5090526;28;20071;-60
2023/03/02 01:34:09;;;;;;;249.75;150.05;;;154.30;2252.80;;;;;;5091052;28;20039;-59
2023/03/02 01:36:35;;;;;;;268.30;160.73;;;154.40;2252.80;;;;;;5090864;28;20028;-59
2023/03/02 01:39:00;;;;;;;306.80;187.25;;;154.40;2252.80;;;;;;5090628;28;20023;-59
2023/03/02 01:41:27;;;;;;;270.75;162.93;;;154.30;2252.80;;;;;;5090571;28;20028;-60
2023/03/02 01:43:53;;;;;;;253.00;151.90;;;154.40;2252.80;;;;;;5090773;28;20032;-58
2023/03/02 01:46:21;;;;;;;260.85;140.70;;;154.50;2252.80;;;;;;5090534;28;20168;-58
2023/03/02 01:49:11;;;;;;;283.38;167.18;;;154.50;2252.80;;;;;;5090326;28;20052;-61
2023/03/02 01:51:42;;;;;;;217.57;131.25;;;154.30;2252.80;;;;;;5090132;28;20063;-59
2023/03/02 01:54:15;;;;;;;230.25;136.15;;;154.40;2252.80;;;;;;5090365;28;20016;-60
2023/03/02 01:56:43;;;;;;;267.45;152.43;;;154.30;2252.80;;;;;;5090312;28;20458;-60
2023/03/02 01:59:14;;;;;;;236.10;140.10;;;154.30;2252.80;;;;;;5090416;28;20085;-58
2023/03/02 02:01:44;;;;;;;244.07;153.70;;;154.20;2252.80;;;;;;5089955;28;20031;-59
2023/03/02 02:04:10;;;;;;;237.07;142.98;;;154.20;2252.80;;;;;;5090246;28;20136;-58
2023/03/02 02:06:47;;;;;;;242.40;155.93;;;154.30;2252.80;;;;;;5089868;28;20028;-60
2023/03/02 02:09:16;;;;;;;245.70;149.00;;;154.30;2252.80;;;;;;5090081;28;20050;-59
2023/03/02 02:11:43;;;;;;;233.95;135.27;;;154.20;2252.80;;;;;;5090069;28;20012;-59
2023/03/02 02:14:09;;;;;;;230.02;126.30;;;154.10;2252.80;;;;;;5090195;28;20032;-59
2023/03/02 02:16:36;;;;;;;228.68;117.43;;;154.00;2252.80;;;;;;5090158;28;20541;-57
2023/03/02 02:19:09;;;;;;;218.65;117.88;;;153.90;2252.80;;;;;;5090182;28;20032;-61
2023/03/02 02:21:35;;;;;;;222.63;117.78;;;153.90;2252.80;;;;;;5090154;28;20061;-61
2023/03/02 02:24:13;;;;;;;227.60;120.65;;;154.00;2252.80;;;;;;5089768;28;20047;-58
2023/03/02 02:26:44;;;;;;;188.50;109.97;;;154.10;2252.80;;;;;;5089870;28;20024;-58
2023/03/02 02:29:14;;;;;;;226.52;126.30;;;154.10;2252.80;;;;;;5089660;28;20403;-59
2023/03/02 02:31:49;;;;;;;215.48;121.15;;;154.20;2252.80;;;;;;5089767;28;20048;-58
2023/03/02 02:34:33;;;;;;;215.23;121.68;;;154.30;2252.80;;;;;;5089892;28;20052;-58
2023/03/02 02:37:06;;;;;;;177.30;93.90;;;154.30;2252.80;;;;;;5089542;28;20513;-59
2023/03/02 02:39:37;;;;;;;179.90;92.13;;;179.20;2252.80;;;;;;5089784;28;20463;-58
2023/03/02 02:42:06;;;;;;;201.07;101.38;;;154.20;2252.80;;;;;;5089382;28;20028;-60
2023/03/02 02:44:32;;;;;;;284.20;108.22;;;153.90;2252.80;;;;;;5089923;28;20040;-58
2023/03/02 02:46:58;;;;;;;260.25;104.32;;;153.80;2252.80;;;;;;5089046;28;20036;-59
2023/03/02 02:49:35;;;;;;;214.82;92.97;;;128.60;2252.80;;;;;;5089752;28;20035;-59
2023/03/02 02:52:02;;;;;;;216.75;96.85;;;128.30;2252.80;;;;;;5089197;28;20047;-58
2023/03/02 02:54:29;;;;;;;241.88;111.18;;;128.20;2252.80;;;;;;5089338;28;20455;-59
2023/03/02 02:56:57;;;;;;;287.77;121.85;;;128.00;2252.80;;;;;;5089309;28;20028;-58
2023/03/02 02:59:27;;;;;;;285.70;113.93;;;128.00;2252.80;;;;;;5090092;28;20024;-58
2023/03/02 03:01:54;;;;;;;262.35;107.93;;;103.30;2227.20;;;;;;5089115;28;20036;-58
2023/03/02 03:04:24;;;;;;;264.10;111.20;;;103.20;2176.00;;;;;;5089403;28;20118;-59
2023/03/02 03:06:56;;;;;;;274.77;119.38;;;103.20;2227.20;;;;;;5089224;28;20099;-58
2023/03/02 03:09:23;;;;;;;194.90;94.38;;;103.30;2227.20;;;;;;5093577;28;20028;-59
2023/03/02 03:12:08;;;;;;;206.68;106.13;;;128.30;2252.80;;;;;;5080132;28;20149;-59
2023/03/02 03:14:38;;;;;;;220.57;113.65;;;128.40;2252.80;;;;;;5093781;28;20028;-58
2023/03/02 03:17:10;;;;;;;233.13;111.63;;;128.40;2252.80;;;;;;5093717;28;20099;-59
2023/03/02 03:19:37;;;;;;;319.93;134.50;;;128.40;2252.80;;;;;;5093168;28;20024;-59
2023/03/02 03:22:03;;;;;;;267.83;123.40;;;128.30;2252.80;;;;;;5093779;28;20252;-59
2023/03/02 03:24:31;;;;;;;311.10;122.85;;;128.10;2252.80;;;;;;5093027;28;20356;-59
2023/03/02 03:26:57;;;;;;;206.98;88.90;;;128.00;2252.80;;;;;;5093089;28;20032;-59
2023/03/02 03:29:25;;;;;;;177.25;84.63;;;103.20;2150.40;;;;;;5093309;28;20047;-59
2023/03/02 03:31:52;;;;;;;195.45;91.85;;;103.20;2227.20;;;;;;5093091;28;20137;-59
2023/03/02 03:34:18;;;;;;;212.80;90.45;;;103.30;2227.20;;;;;;5093186;28;20047;-59
2023/03/02 03:36:44;;;;;;;180.45;90.20;;;103.20;2227.20;;;;;;5093484;28;20024;-59
2023/03/02 03:39:11;;;;;;;174.80;84.28;;;103.20;2227.20;;;;;;5092665;28;20098;-59
2023/03/02 03:41:37;;;;;;;201.10;94.97;;;128.00;2252.80;;;;;;5092859;28;20051;-59
2023/03/02 03:44:03;;;;;;;187.82;89.25;;;103.30;2227.20;;;;;;5092774;28;20035;-59
2023/03/02 03:46:29;;;;;;;163.27;75.30;;;103.10;2227.20;;;;;;5092939;28;20481;-60
2023/03/02 03:48:56;;;;;;;143.32;74.15;;;103.10;2227.20;;;;;;5092584;28;20016;-59
2023/03/02 03:51:22;;;;;;;144.45;72.78;;;103.10;2227.20;;;;;;5093175;28;20027;-58
2023/03/02 03:54:00;;;;;;;148.93;70.90;;;103.20;2227.20;;;;;;5092217;28;20074;-59
2023/03/02 03:56:28;;;;;;;148.75;70.80;;;103.20;2227.20;;;;;;5092854;28;20031;-58
2023/03/02 03:59:05;;;;;;;120.57;61.38;;;103.20;2227.20;;;;;;5066133;28;20016;-60
2023/03/02 04:01:34;;;;;;;100.60;52.33;;;103.20;2227.20;;;;;;5092300;28;20418;-59
2023/03/02 04:04:00;;;;;;;107.97;55.65;;;103.30;2227.20;;;;;;5092675;28;20209;-59
2023/03/02 04:06:26;;;;;;;99.07;48.53;;;103.30;2227.20;;;;;;5092546;28;20027;-59
2023/03/02 04:08:52;;;;;;;100.03;50.83;;;103.30;2227.20;;;;;;5092529;28;20016;-58
2023/03/02 04:11:17;;;;;;;96.70;46.42;;;128.10;2150.40;;;;;;5091868;28;20052;-60
2023/03/02 04:13:43;;;;;;;101.13;51.15;;;128.00;2252.80;;;;;;5092469;28;20020;-60
2023/03/02 04:16:09;;;;;;;88.70;47.22;;;103.30;2227.20;;;;;;5092295;28;20386;-60
2023/03/02 04:18:34;;;;;;;83.70;45.08;;;128.10;2227.20;;;;;;5091616;28;20058;-59
2023/03/02 04:21:00;;;;;;;80.57;43.35;;;128.00;2252.80;;;;;;5091645;28;20028;-59
2023/03/02 04:23:26;;;;;;;73.40;41.80;;;128.00;2252.80;;;;;;5092378;28;20063;-59
2023/03/02 04:25:52;;;;;;;84.15;44.45;;;128.20;2252.80;;;;;;5092148;28;20028;-60
2023/03/02 04:28:18;;;;;;;89.65;46.38;;;128.10;2252.80;;;;;;5092212;28;20047;-59
2023/03/02 04:30:44;;;;;;;81.55;46.25;;;128.30;2227.20;;;;;;5091566;28;20047;-60
2023/03/02 04:33:10;;;;;;;77.47;44.50;;;128.10;2252.80;;;;;;5092421;28;20024;-59
2023/03/02 04:35:36;;;;;;;85.10;45.13;;;128.10;2252.80;;;;;;5092173;28;20514;-60
2023/03/02 04:38:02;;;;;;;83.43;46.53;;;128.20;2252.80;;;;;;5092239;28;20074;-59
2023/03/02 04:40:28;;;;;;;73.07;38.85;;;128.10;2252.80;;;;;;5091845;28;20020;-59
2023/03/02 04:42:54;;;;;;;72.35;38.38;;;128.30;2073.60;;;;;;5091937;28;20023;-58
2023/03/02 04:45:20;;;;;;;73.75;42.25;;;128.20;2252.80;;;;;;5091924;28;20024;-59
2023/03/02 04:47:45;;;;;;;74.25;41.67;;;128.30;2252.80;;;;;;5092055;28;20054;-59
2023/03/02 04:50:13;;;;;;;75.57;39.55;;;128.30;2252.80;;;;;;5091533;28;20058;-59
2023/03/02 04:52:39;;;;;;;73.63;38.80;;;128.20;2252.80;;;;;;5091451;28;20053;-59
2023/03/02 04:55:06;;;;;;;67.30;39.72;;;128.30;2252.80;;;;;;5091761;28;20371;-59
2023/03/02 04:57:32;;;;;;;76.40;40.50;;;128.30;2252.80;;;;;;5091785;28;20024;-59
2023/03/02 04:59:57;;;;;;;81.60;43.10;;;128.30;2252.80;;;;;;5091369;28;20081;-59
2023/03/02 05:02:23;;;;;;;75.95;39.17;;;128.20;2150.40;;;;;;5091631;28;20036;-63
2023/03/02 05:04:49;;;;;;;82.55;44.05;;;128.10;2252.80;;;;;;5091144;28;20028;-59
2023/03/02 05:07:15;;;;;;;77.25;41.15;;;128.00;2252.80;;;;;;5091472;28;20031;-59
2023/03/02 05:09:40;;;;;;;76.38;42.17;;;128.00;2252.80;;;;;;5091578;28;20020;-59
2023/03/02 05:12:06;;;;;;;70.82;39.38;;;128.10;1894.40;;;;;;5091411;28;20498;-59
2023/03/02 05:14:32;;;;;;;72.43;40.60;;;128.20;2252.80;;;;;;5091568;28;20028;-59
2023/03/02 05:16:58;;;;;;;74.30;41.20;;;128.20;2252.80;;;;;;5091372;28;20450;-59
2023/03/02 05:19:24;;;;;;;78.45;40.55;;;128.20;2252.80;;;;;;5091140;28;20115;-59
2023/03/02 05:21:49;;;;;;;83.78;44.63;;;128.10;2227.20;;;;;;5091016;28;20433;-62
2023/03/02 05:24:15;;;;;;;112.00;54.63;;;128.00;2176.00;;;;;;5089250;28;20073;-63
2023/03/02 05:26:41;;;;;;;89.82;51.78;;;103.30;2227.20;;;;;;5079692;28;20090;-59
2023/03/02 05:29:07;;;;;;;99.45;52.08;;;103.30;2227.20;;;;;;5083689;28;20035;-59
2023/03/02 05:31:35;;;;;;;92.63;47.83;;;103.30;2227.20;;;;;;5090576;28;20055;-59
2023/03/02 05:34:03;;;;;;;84.53;43.38;;;103.20;2227.20;;;;;;5090728;28;20024;-59
2023/03/02 05:36:28;;;;;;;82.90;43.00;;;103.20;2227.20;;;;;;5080622;28;20024;-58
2023/03/02 05:38:54;;;;;;;73.05;40.45;;;103.30;2227.20;;;;;;5069048;28;20032;-59
2023/03/02 05:41:20;;;;;;;76.22;42.83;;;128.00;2252.80;;;;;;5079299;28;20362;-59
2023/03/02 05:43:46;;;;;;;73.78;41.58;;;128.00;2252.80;;;;;;5090213;28;20028;-59
2023/03/02 05:46:11;;;;;;;71.85;40.22;;;128.20;2252.80;;;;;;5090654;28;20035;-59
2023/03/02 05:48:37;;;;;;;80.68;43.95;;;128.20;2252.80;;;;;;5090128;28;20035;-59
2023/03/02 05:51:03;;;;;;;80.07;40.30;;;128.10;2252.80;;;;;;5090780;28;20032;-60
2023/03/02 05:53:29;;;;;;;70.38;40.65;;;128.20;2252.80;;;;;;5089962;28;20047;-59
2023/03/02 05:55:55;;;;;;;79.35;40.10;;;128.10;1996.80;;;;;;5090674;28;20458;-61
2023/03/02 05:58:21;;;;;;;71.15;39.80;;;128.10;2252.80;;;;;;5090566;28;20359;-59
2023/03/02 06:00:47;;;;;;;69.72;39.63;;;128.30;2252.80;;;;;;5090412;28;20055;-58
2023/03/02 06:03:14;;;;;;;80.57;41.55;;;128.40;2252.80;;;;;;5090214;28;20039;-59
2023/03/02 06:05:40;;;;;;;94.68;58.83;;;128.40;2252.80;;;;;;5090503;28;20024;-58
2023/03/02 06:08:06;;;;;;;76.70;42.78;;;128.40;2252.80;;;;;;5076813;28;20085;-59
2023/03/02 06:10:32;;;;;;;71.20;43.78;;;128.40;2252.80;;;;;;5069834;28;20032;-57
2023/03/02 06:12:58;;;;;;;67.13;46.63;;;128.40;1894.40;;;;;;5069794;28;20099;-58
2023/03/02 06:15:24;;;;;;;65.78;38.58;;;128.50;1945.60;;;;;;5070057;28;20112;-60
2023/03/02 06:17:50;;;;;;;60.55;36.05;;;128.70;2252.80;;;;;;5069959;28;20482;-59
2023/03/02 06:20:17;;;;;;;61.03;39.47;;;128.70;2252.80;;;;;;5073034;28;20028;-61
2023/03/02 06:22:44;;;;;;;58.50;35.60;;;128.80;2252.80;;;;;;5079372;28;20069;-60
2023/03/02 06:25:16;;;;;;;75.18;43.60;;;128.50;2252.80;;;;;;5074603;28;20562;-59
2023/03/02 06:27:42;;;;;;;72.38;39.40;;;128.50;2252.80;;;;;;5069834;28;20044;-59
2023/03/02 06:30:13;;;;;;;78.95;46.25;;;128.40;2252.80;;;;;;5083105;28;20049;-59
2023/03/02 06:32:39;;;;;;;76.43;43.30;;;128.40;2252.80;;;;;;5087910;28;20051;-60
2023/03/02 06:35:06;;;;;;;57.67;37.55;;;128.60;2252.80;;;;;;5069667;28;20028;-59
2023/03/02 06:37:32;;;;;;;61.17;37.47;;;128.80;2252.80;;;;;;5081825;28;20032;-60
2023/03/02 06:39:58;;;;;;;67.28;38.80;;;128.90;2252.80;;;;;;5084480;28;20024;-59
2023/03/02 06:42:25;;;;;;;61.90;35.67;;;128.90;2252.80;;;;;;5080855;28;20432;-59
2023/03/02 06:44:53;;;;;;;63.63;38.22;;;153.60;2252.80;;;;;;5089628;28;20032;-58
2023/03/02 06:47:19;;;;;;;124.25;74.88;;;153.80;2252.80;;;;;;5077243;28;20052;-58
2023/03/02 06:49:45;;;;;;;138.07;82.95;;;153.90;2252.80;;;;;;5088750;28;20023;-60
2023/03/02 06:52:12;;;;;;;77.50;49.20;;;154.10;2252.80;;;;;;5089669;28;20031;-58
2023/03/02 06:54:38;;;;;;;60.03;35.03;;;154.30;2252.80;;;;;;5089463;28;20020;-58
2023/03/02 06:57:03;;;;;;;64.78;42.10;;;154.50;2252.80;;;;;;5089661;28;20028;-59
2023/03/02 06:59:29;;;;;;;51.15;33.80;;;154.50;2252.80;;;;;;5089578;28;20465;-58
2023/03/02 07:01:55;;;;;;;55.83;36.90;;;154.40;2252.80;;;;;;5089223;28;20386;-57
2023/03/02 07:04:20;;;;;;;89.65;63.55;;;154.50;2252.80;;;;;;5089305;28;20036;-58
2023/03/02 07:06:46;;;;;;;66.43;43.70;;;154.50;2252.80;;;;;;5089298;28;20020;-59
2023/03/02 07:09:12;;;;;;;63.70;40.70;;;154.30;2252.80;;;;;;5089239;28;20031;-63
2023/03/02 07:11:38;;;;;;;74.47;45.38;;;154.20;2252.80;;;;;;5073491;28;20021;-67
2023/03/02 07:14:04;;;;;;;80.70;47.58;;;154.30;2252.80;;;;;;5087134;28;20044;-67
2023/03/02 07:16:32;;;;;;;69.25;44.92;;;154.50;2252.80;;;;;;5089443;28;20021;-68
2023/03/02 07:18:57;;;;;;;80.15;49.53;;;179.30;2252.80;;;;;;5089439;28;20030;-65
2023/03/02 07:21:23;;;;;;;82.70;53.92;;;179.40;2252.80;;;;;;5089532;28;20377;-65
2023/03/02 07:23:49;;;;;;;74.45;49.45;;;179.60;2252.80;;;;;;5081826;28;20028;-64
2023/03/02 07:26:14;;;;;;;78.13;46.17;;;179.80;2252.80;;;;;;5082863;28;20043;-67
2023/03/02 07:28:42;;;;;;;76.70;47.25;;;179.90;2252.80;;;;;;5089449;28;20111;-65
2023/03/02 07:31:08;;;;;;;64.13;42.45;;;179.90;2252.80;;;;;;5089345;28;20482;-65
2023/03/02 07:33:35;;;;;;;68.75;45.45;;;179.80;2252.80;;;;;;5089621;28;20036;-63
2023/03/02 07:36:01;;;;;;;79.35;49.35;;;179.90;2252.80;;;;;;5089477;28;20047;-65
2023/03/02 07:38:27;;;;;;;85.65;52.53;;;179.80;2252.80;;;;;;5089067;28;20059;-65
2023/03/02 07:40:53;;;;;;;82.28;52.13;;;179.70;2252.80;;;;;;5084107;28;20024;-67
2023/03/02 07:43:19;;;;;;;73.18;50.72;;;179.80;2252.80;;;;;;5070814;28;20429;-66
2023/03/02 07:45:45;;;;;;;79.35;51.38;;;179.90;2252.80;;;;;;5072735;28;20036;-62
2023/03/02 07:48:11;;;;;;;79.43;52.92;;;179.90;2252.80;;;;;;5075550;28;20027;-64
2023/03/02 07:50:37;;;;;;;75.85;49.08;;;179.90;2252.80;;;;;;5088973;28;20377;-66
2023/03/02 07:53:03;;;;;;;85.35;55.50;;;179.80;2252.80;;;;;;5089579;28;20157;-61
2023/03/02 07:55:28;;;;;;;84.78;57.65;;;179.60;2252.80;;;;;;5092674;28;20056;-64
2023/03/02 07:57:54;;;;;;;86.60;53.25;;;179.60;2252.80;;;;;;5092763;28;20016;-65
2023/03/02 08:00:20;;;;;;;75.60;50.10;;;179.50;2252.80;;;;;;5092109;28;20036;-66
2023/03/02 08:02:46;;;;;;;78.60;52.30;;;179.70;2252.80;;;;;;5092987;28;20020;-66
2023/03/02 08:05:13;;;;;;;73.03;49.35;;;180.00;2252.80;;;;;;5092553;28;20371;-63
2023/03/02 08:07:39;;;;;;;75.88;50.25;;;204.90;2252.80;;;;;;5092816;28;20016;-64
2023/03/02 08:10:05;;;;;;;71.13;47.40;;;205.00;2252.80;;;;;;5092445;28;20028;-62
2023/03/02 08:12:31;;;;;;;89.05;50.45;;;205.00;2252.80;;;;;;5092712;28;20099;-63
2023/03/02 08:14:57;;;;;;;71.40;47.17;;;205.00;2252.80;;;;;;5091794;28;20494;-62
2023/03/02 08:17:23;;;;;;;83.80;58.13;;;205.20;2252.80;;;;;;5092699;28;20024;-64
2023/03/02 08:19:48;;;;;;;84.50;59.33;;;205.00;2252.80;;;;;;5092080;28;20020;-64
2023/03/02 08:22:14;;;;;;;58.33;40.80;;;205.30;2252.80;;;;;;5092510;28;20023;-62
2023/03/02 08:24:41;;;;;;;49.97;34.97;;;205.30;2252.80;;;;;;5091948;28;20375;-62
2023/03/02 08:27:14;;;;;;;63.10;43.58;;;205.60;2252.80;;;;;;5092047;28;20103;-65
2023/03/02 08:29:40;;;;;;;59.92;44.03;;;230.50;2252.80;;;;;;5091912;28;20035;-62
2023/03/02 08:32:06;;;;;;;59.80;40.90;;;230.70;2252.80;;;;;;5092092;28;20054;-62
2023/03/02 08:34:31;;;;;;;59.35;41.38;;;231.00;2252.80;;;;;;5092366;28;20310;-64
2023/03/02 08:36:57;;;;;;;61.35;44.10;;;231.20;2252.80;;;;;;5092151;28;20020;-62
2023/03/02 08:39:23;;;;;;;59.50;41.00;;;256.20;2252.80;;;;;;5091812;28;20027;-62
2023/03/02 08:41:52;;;;;;;57.60;39.58;;;282.10;2278.40;;;;;;5091808;28;20047;-64
2023/03/02 08:44:20;;;;;;;74.18;49.65;;;307.60;2304.00;;;;;;5065291;28;20039;-62
2023/03/02 08:46:49;;;;;;;69.50;51.60;;;332.80;2329.60;;;;;;5091672;28;20031;-63
2023/03/02 08:49:17;;;;;;;66.97;49.53;;;332.90;2329.60;;;;;;5092072;28;20028;-63
2023/03/02 08:51:43;;;;;;;68.57;48.08;;;332.90;2329.60;;;;;;5091640;28;20021;-62
2023/03/02 08:54:09;;;;;;;60.28;40.78;;;308.00;2304.00;;;;;;5091770;28;20106;-61
2023/03/02 08:56:36;;;;;;;62.58;47.95;;;333.00;2329.60;;;;;;5091584;28;20024;-62
2023/03/02 08:59:06;;;;;;;60.80;44.55;;;333.60;2329.60;;;;;;5091797;28;20022;-62
2023/03/02 09:01:34;;;;;;;56.47;42.45;;;358.40;2329.60;;;;;;5091416;28;20028;-62
2023/03/02 09:04:01;;;;;;;112.47;92.10;;;359.20;2329.60;;;;;;5091376;28;20036;-62
2023/03/02 09:06:28;;;;;;;128.30;101.85;;;409.70;2252.80;;;;;;5090465;28;20024;-63
2023/03/02 09:08:54;;;;;;;106.93;91.43;;;435.20;2150.40;;;;;;5091205;28;20348;-63
2023/03/02 09:11:20;;;;;;;123.18;102.78;;;435.40;2048.00;;;;;;5091025;28;20027;-61
2023/03/02 09:13:46;;;;;;;105.20;93.63;;;436.10;1996.80;;;;;;5091756;28;20517;-62
2023/03/02 09:16:13;;;;;;;107.07;92.32;;;435.50;2073.60;;;;;;5091783;28;20024;-64
2023/03/02 09:18:38;;;;;;;119.00;102.95;;;410.50;2099.20;;;;;;5091122;28;20069;-62
2023/03/02 09:21:04;;;;;;;124.35;107.78;;;435.60;2048.00;;;;;;5077596;28;20028;-62
2023/03/02 09:23:31;;;;;;;123.32;108.72;;;435.80;2022.40;;;;;;5090915;28;20035;-62
2023/03/02 09:25:57;;;;;;;100.13;89.15;;;461.00;2022.40;;;;;;5090878;28;20027;-62
2023/03/02 09:28:23;;;;;;;110.45;95.78;;;435.40;2022.40;;;;;;5089535;28;20691;-62
2023/03/02 09:30:53;;;;;;;112.72;97.57;;;435.80;1996.80;;;;;;5090476;28;20043;-64
2023/03/02 09:33:20;;;;;;;114.35;101.78;;;435.30;2073.60;;;;;;5090585;28;20028;-62
2023/03/02 09:35:46;;;;;;;112.65;99.15;;;409.80;2099.20;;;;;;5090754;28;20028;-62
2023/03/02 09:38:15;;;;;;;113.78;99.75;;;409.60;2176.00;;;;;;5091195;28;20057;-61
2023/03/02 09:40:57;;;;;;;116.18;99.68;;;384.60;2176.00;;;;;;5091042;28;20016;-62
2023/03/02 09:43:26;;;;;;;112.75;100.43;;;384.10;2278.40;;;;;;5090911;28;20031;-61
2023/03/02 09:46:15;;;;;;;125.72;105.28;;;384.00;2278.40;;;;;;5084559;28;20026;-61
2023/03/02 09:49:13;;;;;;;104.88;92.00;;;384.10;2329.60;;;;;;5072955;28;20027;-61
2023/03/02 09:51:49;;;;;;;112.93;100.50;;;358.50;2329.60;;;;;;5090594;28;20107;-62
2023/03/02 09:54:20;;;;;;;121.15;99.57;;;358.60;2329.60;;;;;;5091098;28;20103;-63
2023/03/02 09:56:49;;;;;;;109.70;94.78;;;358.70;2329.60;;;;;;5090229;28;20024;-63
2023/03/02 09:59:31;;;;;;;118.65;99.20;;;359.00;2329.60;;;;;;5090823;28;20051;-62
2023/03/02 10:02:18;;;;;;;169.10;137.63;;;359.10;2329.60;;;;;;5089890;28;20028;-62
2023/03/02 10:04:49;;;;;;;147.65;121.03;;;358.90;2329.60;;;;;;5090491;28;20035;-62
2023/03/02 10:07:19;;;;;;;117.25;97.07;;;359.10;2329.60;;;;;;5086738;28;20027;-62
2023/03/02 10:09:45;;;;;;;92.78;70.40;;;359.00;2329.60;;;;;;5088766;28;20035;-61
2023/03/02 10:13:01;;;;;;;83.30;69.95;;;359.20;2329.60;;;;;;5088758;28;20036;-62
2023/03/02 10:15:57;;;;;;;60.65;50.03;;;359.20;2329.60;;;;;;5005498;28;20506;-63
2023/03/02 10:18:27;;;;;;;70.68;53.90;;;384.30;2329.60;;;;;;5005961;28;20160;-63
2023/03/02 10:21:00;;;;;;;78.07;62.80;;;359.30;2329.60;;;;;;5006473;28;20649;-63
2023/03/02 10:23:58;;;;;;;75.50;64.85;;;384.20;2329.60;;;;;;5006599;28;20041;-62
2023/03/02 10:26:29;;;;;;;82.18;63.55;;;384.30;2329.60;;;;;;4942689;29;20047;-64
2023/03/02 10:29:17;;;;;;;126.93;96.28;;;384.40;2329.60;;;;;;4941824;29;20119;-63
2023/03/02 10:31:45;;;;;;;97.47;74.25;;;384.50;2329.60;;;;;;4946116;29;20059;-61
2023/03/02 10:34:12;;;;;;;327.30;212.68;;;359.30;2329.60;;;;;;4946093;29;20106;-61
2023/03/02 10:36:40;;;;;;;87.88;65.03;;;384.00;2329.60;;;;;;4946118;29;20094;-66
2023/03/02 10:39:12;;;;;;;65.03;52.17;;;359.00;2329.60;;;;;;4946082;29;20498;-64
2023/03/02 10:41:48;;;;;;;65.95;54.42;;;358.90;2329.60;;;;;;4945972;29;20101;-65
2023/03/02 10:44:20;;;;;;;76.78;58.92;;;358.70;2329.60;;;;;;4945887;29;20043;-66
2023/03/02 10:46:46;;;;;;;282.42;214.18;;;358.50;2329.60;;;;;;5017604;28;20513;-66
2023/03/02 10:49:32;;;;;;;94.32;72.50;;;333.70;2329.60;;;;;;5044083;28;20025;-64
2023/03/02 10:52:19;;;;;;;73.47;58.38;;;333.40;2329.60;;;;;;5043647;28;20032;-63
2023/03/02 10:54:46;;;;;;;66.45;52.33;;;333.20;2329.60;;;;;;5044026;28;20155;-61
2023/03/02 10:57:39;;;;;;;69.68;50.50;;;332.80;2329.60;;;;;;5023742;28;20556;-65
2023/03/02 11:00:17;;;;;;;70.27;54.97;;;308.00;2304.00;;;;;;5022873;28;20025;-64
2023/03/02 11:02:57;;;;;;;68.80;53.05;;;307.80;2304.00;;;;;;5052696;28;20269;-65
2023/03/02 11:05:29;;;;;;;70.53;51.40;;;307.40;2304.00;;;;;;5086351;28;20046;-64
2023/03/02 11:07:59;;;;;;;63.30;48.08;;;307.20;2304.00;;;;;;5087603;28;20489;-65
2023/03/02 11:10:30;;;;;;;64.90;49.40;;;282.50;2278.40;;;;;;5088245;28;20024;-64
2023/03/02 11:12:57;;;;;;;62.97;49.17;;;282.40;2278.40;;;;;;5087985;28;20024;-63
2023/03/02 11:15:31;;;;;;;70.55;51.58;;;282.30;2278.40;;;;;;5088129;28;20096;-62
2023/03/02 11:18:01;;;;;;;66.22;49.72;;;282.30;2278.40;;;;;;5088031;28;20107;-62
2023/03/02 11:20:33;;;;;;;67.85;53.13;;;282.40;2278.40;;;;;;5087948;28;20474;-61
2023/03/02 11:23:31;;;;;;;64.95;52.03;;;282.50;2278.40;;;;;;5087837;28;20027;-62
2023/03/02 11:26:13;;;;;;;66.68;52.78;;;307.30;2304.00;;;;;;5087456;28;20607;-61
2023/03/02 11:28:52;;;;;;;64.60;50.37;;;282.50;2278.40;;;;;;5087686;28;20061;-65
2023/03/02 11:31:25;;;;;;;104.65;76.45;;;282.50;2278.40;;;;;;5089722;28;20043;-64
2023/03/02 11:34:06;;;;;;;70.80;52.58;;;282.50;2278.40;;;;;;5089864;28;20054;-65
2023/03/02 11:37:03;;;;;;;71.25;52.30;;;307.20;2304.00;;;;;;5089226;28;20028;-63
2023/03/02 11:39:47;;;;;;;65.38;47.80;;;307.40;2304.00;;;;;;5009204;28;20037;-62
2023/03/02 11:42:26;;;;;;;61.33;50.00;;;307.30;2304.00;;;;;;5009820;28;20117;-62
2023/03/02 11:44:51;;;;;;;70.20;52.80;;;307.60;2304.00;;;;;;5010436;28;20156;-61
2023/03/02 11:47:19;;;;;;;66.05;50.08;;;307.60;2304.00;;;;;;5010416;28;20469;-62
2023/03/02 11:49:51;;;;;;;59.92;48.40;;;307.70;2304.00;;;;;;5009824;28;20427;-61
2023/03/02 11:52:21;;;;;;;75.67;57.90;;;307.80;2304.00;;;;;;5011015;28;20117;-62
2023/03/02 11:55:09;;;;;;;69.97;51.72;;;307.90;2304.00;;;;;;5009927;28;20781;-61
2023/03/02 11:57:39;;;;;;;72.72;55.38;;;307.80;2304.00;;;;;;5010569;28;20044;-62
2023/03/02 12:00:14;;;;;;;64.55;48.50;;;308.00;2304.00;;;;;;5010542;28;20030;-63